createdAt,value
2019-05-09T00:01:23.722Z,12.80
2019-05-09T00:03:53.813Z,10.80
2019-05-09T00:06:23.967Z,12.03
2019-05-09T00:08:53.267Z,11.45
2019-05-09T00:11:21.814Z,10.60
2019-05-09T00:13:50.317Z,11.30
2019-05-09T00:16:18.837Z,14.25
2019-05-09T00:18:47.249Z,10.63
2019-05-09T00:21:17.354Z,11.15
2019-05-09T00:23:45.774Z,11.53
2019-05-09T00:26:14.197Z,11.90
2019-05-09T00:28:44.603Z,10.38
2019-05-09T00:31:23.956Z,9.55
2019-05-09T00:33:54.204Z,11.88
2019-05-09T00:36:23.210Z,8.73
2019-05-09T00:38:53.704Z,8.00
2019-05-09T00:41:23.937Z,8.38
2019-05-09T00:43:54.408Z,7.85
2019-05-09T00:46:24.457Z,8.23
2019-05-09T00:49:00.552Z,7.22
2019-05-09T00:51:29.115Z,7.30
2019-05-09T00:53:57.544Z,7.87
2019-05-09T00:56:26.022Z,9.10
2019-05-09T00:58:54.482Z,9.18
2019-05-09T01:01:24.037Z,7.12
2019-05-09T01:03:53.532Z,6.12
2019-05-09T01:06:23.936Z,6.65
2019-05-09T01:08:53.906Z,7.30
2019-05-09T01:11:24.194Z,6.95
2019-05-09T01:13:54.321Z,6.78
2019-05-09T01:16:24.104Z,7.15
2019-05-09T01:18:59.188Z,6.75
2019-05-09T01:21:27.610Z,8.30
2019-05-09T01:23:56.033Z,7.10
2019-05-09T01:26:24.500Z,7.25
2019-05-09T01:28:53.953Z,7.70
2019-05-09T01:31:24.081Z,7.72
2019-05-09T01:33:54.607Z,6.72
2019-05-09T01:36:23.562Z,6.95
2019-05-09T01:38:53.995Z,6.97
2019-05-09T01:41:29.792Z,8.83
2019-05-09T01:43:53.628Z,7.45
2019-05-09T01:46:23.606Z,7.28
2019-05-09T01:48:53.980Z,7.05
2019-05-09T01:51:23.350Z,7.00
2019-05-09T01:53:53.636Z,9.93
2019-05-09T01:56:23.479Z,7.95
2019-05-09T02:02:33.852Z,7.62
2019-05-09T02:05:04.157Z,8.70
2019-05-09T02:07:33.258Z,7.90
2019-05-09T02:10:03.401Z,9.30
2019-05-09T02:12:33.895Z,8.88
2019-05-09T02:15:13.136Z,11.28
2019-05-09T02:18:00.703Z,9.33
2019-05-09T02:20:24.201Z,9.50
2019-05-09T02:22:54.303Z,10.85
2019-05-09T02:25:24.245Z,12.70
2019-05-09T02:27:55.115Z,16.20
2019-05-09T02:30:25.365Z,12.65
2019-05-09T02:32:54.749Z,15.75
2019-05-09T02:35:23.630Z,16.60
2019-05-09T02:37:52.053Z,14.25
2019-05-09T02:40:20.746Z,14.25
2019-05-09T02:42:49.363Z,13.72
2019-05-09T02:45:19.443Z,17.37
2019-05-09T02:47:49.017Z,18.12
2019-05-09T02:50:19.515Z,17.62
2019-05-09T02:52:48.811Z,17.45
2019-05-09T02:55:18.418Z,19.87
2019-05-09T02:57:49.129Z,20.25
2019-05-09T03:00:39.494Z,18.75
2019-05-09T03:03:10.631Z,19.62
2019-05-09T03:05:39.082Z,21.05
2019-05-09T03:08:09.016Z,21.87
2019-05-09T03:10:38.174Z,21.45
2019-05-09T03:13:09.116Z,24.52
2019-05-09T03:15:39.432Z,27.07
2019-05-09T03:18:08.964Z,24.52
2019-05-09T03:20:39.511Z,26.50
2019-05-09T03:23:09.172Z,26.70
2019-05-09T03:25:40.975Z,24.67
2019-05-09T03:28:28.581Z,27.20
2019-05-09T03:30:59.339Z,27.22
2019-05-09T03:33:29.631Z,27.07
2019-05-09T03:35:58.299Z,29.32
2019-05-09T03:38:28.418Z,29.82
2019-05-09T03:40:58.051Z,31.75
2019-05-09T03:43:27.552Z,31.90
2019-05-09T03:46:14.070Z,30.90
2019-05-09T03:48:47.708Z,34.03
2019-05-09T03:51:18.228Z,31.10
2019-05-09T03:53:48.246Z,32.58
2019-05-09T03:56:27.394Z,30.50
2019-05-09T03:58:57.858Z,33.20
2019-05-09T04:01:28.081Z,28.90
2019-05-09T04:03:58.433Z,32.58
2019-05-09T04:06:28.227Z,32.13
2019-05-09T04:08:58.522Z,33.80
2019-05-09T04:11:27.679Z,31.12
2019-05-09T04:13:58.625Z,26.15
2019-05-09T04:16:27.672Z,30.32
2019-05-09T04:18:58.154Z,28.07
2019-05-09T04:21:27.963Z,27.85
2019-05-09T04:23:58.450Z,27.67
2019-05-09T04:26:32.187Z,29.52
2019-05-09T04:29:00.616Z,30.85
2019-05-09T04:31:29.110Z,29.63
2019-05-09T04:33:57.839Z,27.55
2019-05-09T04:36:41.211Z,28.73
2019-05-09T04:39:21.516Z,29.90
2019-05-09T04:41:42.774Z,30.27
2019-05-09T04:44:19.247Z,29.27
2019-05-09T04:46:48.061Z,27.50
2019-05-09T04:49:18.535Z,31.17
2019-05-09T04:51:47.925Z,29.52
2019-05-09T04:54:17.760Z,30.80
2019-05-09T04:56:47.517Z,28.87
2019-05-09T04:59:17.913Z,30.82
2019-05-09T05:01:48.632Z,31.90
2019-05-09T05:04:18.123Z,30.88
2019-05-09T05:06:47.775Z,30.60
2019-05-09T05:09:20.504Z,30.37
2019-05-09T05:11:49.049Z,34.83
2019-05-09T05:14:22.909Z,31.35
2019-05-09T05:16:58.171Z,32.10
2019-05-09T05:19:25.671Z,34.70
2019-05-09T05:21:58.277Z,35.70
2019-05-09T05:24:31.935Z,30.57
2019-05-09T05:27:00.675Z,33.80
2019-05-09T05:29:29.110Z,35.23
2019-05-09T05:31:59.422Z,36.42
2019-05-09T05:34:31.933Z,37.15
2019-05-09T05:37:00.363Z,36.65
2019-05-09T05:39:29.010Z,36.17
2019-05-09T05:41:58.461Z,34.18
2019-05-09T05:44:28.350Z,35.05
2019-05-09T05:47:04.937Z,37.20
2019-05-09T05:49:33.362Z,36.17
2019-05-09T05:52:02.181Z,40.12
2019-05-09T05:54:30.767Z,37.53
2019-05-09T05:56:59.580Z,37.67
2019-05-09T05:59:28.750Z,39.90
2019-05-09T06:01:58.515Z,40.28
2019-05-09T06:04:27.629Z,40.85
2019-05-09T06:06:58.631Z,37.48
2019-05-09T06:09:28.012Z,39.13
2019-05-09T06:11:59.366Z,38.00
2019-05-09T06:14:28.598Z,39.20
2019-05-09T06:16:58.727Z,39.10
2019-05-09T06:19:28.666Z,38.00
2019-05-09T06:21:57.571Z,36.53
2019-05-09T06:24:29.699Z,38.05
2019-05-09T06:26:58.663Z,34.85
2019-05-09T06:29:28.582Z,36.98
2019-05-09T06:31:58.423Z,34.20
2019-05-09T06:34:27.899Z,36.58
2019-05-09T06:36:58.574Z,39.70
2019-05-09T06:39:28.519Z,38.25
2019-05-09T06:41:57.500Z,37.08
2019-05-09T06:44:37.499Z,36.75
2019-05-09T06:47:08.282Z,37.33
2019-05-09T06:49:38.700Z,36.47
2019-05-09T06:52:08.700Z,36.60
2019-05-09T06:54:41.334Z,35.10
2019-05-09T06:57:08.033Z,35.38
2019-05-09T06:59:38.179Z,32.85
2019-05-09T07:02:08.606Z,32.53
2019-05-09T07:04:41.498Z,35.38
2019-05-09T07:07:23.793Z,34.30
2019-05-09T07:09:58.594Z,36.03
2019-05-09T07:12:27.443Z,38.83
2019-05-09T07:14:57.951Z,36.25
2019-05-09T07:17:31.760Z,39.05
2019-05-09T07:19:58.861Z,36.70
2019-05-09T07:22:43.485Z,39.18
2019-05-09T07:25:18.469Z,39.73
2019-05-09T07:27:48.280Z,41.28
2019-05-09T07:30:34.475Z,42.65
2019-05-09T07:33:19.661Z,39.30
2019-05-09T07:35:48.681Z,39.58
2019-05-09T07:38:18.761Z,36.53
2019-05-09T07:40:47.870Z,42.33
2019-05-09T07:43:17.989Z,40.73
2019-05-09T07:46:08.876Z,36.95
2019-05-09T07:48:38.373Z,37.55
2019-05-09T07:51:07.864Z,39.20
2019-05-09T07:53:38.054Z,36.30
2019-05-09T07:56:07.891Z,38.67
2019-05-09T07:58:37.694Z,40.88
2019-05-09T08:01:08.641Z,35.40
2019-05-09T08:03:38.449Z,36.50
2019-05-09T08:06:08.810Z,39.15
2019-05-09T08:08:38.496Z,35.65
2019-05-09T08:11:08.800Z,38.67
2019-05-09T08:13:39.190Z,34.13
2019-05-09T08:16:12.408Z,37.25
2019-05-09T08:18:38.030Z,32.80
2019-05-09T08:21:08.410Z,34.00
2019-05-09T08:23:37.981Z,32.40
2019-05-09T08:26:08.794Z,34.05
2019-05-09T08:28:38.945Z,33.10
2019-05-09T08:31:08.225Z,32.90
2019-05-09T08:33:38.072Z,28.77
2019-05-09T08:36:08.707Z,28.87
2019-05-09T08:38:38.986Z,30.77
2019-05-09T08:41:09.335Z,29.00
2019-05-09T08:43:39.181Z,30.88
2019-05-09T08:46:08.086Z,32.75
2019-05-09T08:48:37.839Z,28.02
2019-05-09T08:51:09.017Z,29.55
2019-05-09T08:53:38.227Z,26.23
2019-05-09T08:56:08.964Z,29.92
2019-05-09T08:58:38.175Z,28.90
2019-05-09T09:01:09.728Z,27.35
2019-05-09T09:03:37.833Z,30.00
2019-05-09T09:06:08.345Z,27.67
2019-05-09T09:08:38.014Z,29.27
2019-05-09T09:11:08.641Z,25.20
2019-05-09T09:13:37.927Z,27.98
2019-05-09T09:16:18.008Z,26.07
2019-05-09T09:18:38.777Z,27.73
2019-05-09T09:21:08.129Z,26.45
2019-05-09T09:23:43.928Z,25.92
2019-05-09T09:26:08.125Z,30.50
2019-05-09T09:28:37.983Z,24.35
2019-05-09T09:31:08.200Z,25.82
2019-05-09T09:33:37.785Z,22.48
2019-05-09T09:36:08.719Z,22.80
2019-05-09T09:38:37.572Z,22.58
2019-05-09T09:41:11.402Z,23.05
2019-05-09T09:43:39.861Z,21.87
2019-05-09T09:46:14.333Z,26.42
2019-05-09T09:48:39.051Z,20.50
2019-05-09T09:51:08.144Z,23.32
2019-05-09T09:53:38.447Z,23.52
2019-05-09T09:56:08.642Z,21.15
2019-05-09T09:58:38.004Z,24.82
2019-05-09T10:01:23.704Z,21.48
2019-05-09T10:03:53.764Z,22.60
2019-05-09T10:06:22.228Z,18.45
2019-05-09T10:08:50.690Z,24.50
2019-05-09T10:11:19.127Z,22.40
2019-05-09T10:13:48.432Z,18.52
2019-05-09T10:16:34.848Z,20.75
2019-05-09T10:19:10.882Z,21.75
2019-05-09T10:21:40.994Z,25.35
2019-05-09T10:24:09.431Z,20.27
2019-05-09T10:26:39.117Z,21.70
2019-05-09T10:29:07.929Z,20.95
2019-05-09T10:31:39.033Z,21.75
2019-05-09T10:34:06.903Z,21.57
2019-05-09T10:36:35.462Z,21.52
2019-05-09T10:39:08.167Z,18.55
2019-05-09T10:41:37.624Z,20.70
2019-05-09T10:44:08.486Z,22.58
2019-05-09T10:46:56.825Z,16.85
2019-05-09T10:49:18.588Z,14.38
2019-05-09T10:51:48.545Z,15.50
2019-05-09T10:54:18.515Z,18.12
2019-05-09T10:56:48.723Z,14.98
2019-05-09T10:59:18.269Z,19.87
2019-05-09T11:01:49.436Z,18.07
2019-05-09T11:04:18.055Z,14.23
2019-05-09T11:06:46.498Z,11.95
2019-05-09T11:09:15.125Z,15.58
2019-05-09T11:11:43.961Z,15.60
2019-05-09T11:14:27.854Z,13.05
2019-05-09T11:16:46.506Z,11.08
2019-05-09T11:19:13.069Z,11.45
2019-05-09T11:21:41.507Z,15.50
2019-05-09T11:24:09.973Z,9.53
2019-05-09T11:26:39.930Z,12.43
2019-05-09T11:29:08.726Z,12.75
2019-05-09T11:31:38.482Z,7.50
2019-05-09T11:34:08.836Z,9.75
2019-05-09T11:36:38.202Z,11.68
2019-05-09T11:39:10.969Z,11.50
2019-05-09T11:41:39.716Z,8.75
2019-05-09T11:44:08.656Z,8.03
2019-05-09T11:46:38.270Z,9.00
2019-05-09T11:49:08.380Z,8.75
2019-05-09T11:51:37.050Z,9.90
2019-05-09T11:54:05.468Z,11.70
2019-05-09T11:56:33.923Z,8.53
2019-05-09T11:59:02.360Z,7.05
2019-05-09T12:01:32.422Z,10.43
2019-05-09T12:04:01.515Z,8.50
2019-05-09T12:06:29.935Z,6.72
2019-05-09T12:09:01.828Z,12.23
2019-05-09T12:11:30.324Z,5.47
2019-05-09T12:13:59.095Z,10.13
2019-05-09T12:16:28.088Z,7.70
2019-05-09T12:18:58.437Z,6.50
2019-05-09T12:21:28.180Z,12.20
2019-05-09T12:23:58.083Z,8.90
2019-05-09T12:26:29.097Z,5.12
2019-05-09T12:28:57.983Z,5.87
2019-05-09T12:31:28.761Z,5.50
2019-05-09T12:33:59.278Z,5.20
2019-05-09T12:36:28.590Z,4.58
2019-05-09T12:38:59.186Z,4.37
2019-05-09T12:41:31.371Z,5.78
2019-05-09T12:43:57.705Z,6.12
2019-05-09T12:46:28.180Z,6.28
2019-05-09T12:48:59.194Z,5.12
2019-05-09T12:51:28.262Z,4.28
2019-05-09T12:53:57.944Z,4.92
2019-05-09T12:56:28.421Z,4.62
2019-05-09T12:58:57.843Z,4.03
2019-05-09T13:01:29.547Z,6.70
2019-05-09T13:03:58.478Z,4.72
2019-05-09T13:06:29.273Z,5.05
2019-05-09T13:08:58.659Z,4.22
2019-05-09T13:11:28.223Z,7.70
2019-05-09T13:13:56.887Z,6.37
2019-05-09T13:16:42.792Z,3.47
2019-05-09T13:21:33.053Z,4.60
2019-05-09T13:24:02.230Z,4.30
2019-05-09T13:26:30.953Z,4.12
2019-05-09T13:28:59.704Z,3.45
2019-05-09T13:31:29.572Z,4.75
2019-05-09T13:33:58.554Z,6.87
2019-05-09T13:36:28.470Z,5.53
2019-05-09T13:39:04.176Z,7.33
2019-05-09T13:41:27.793Z,5.78
2019-05-09T13:43:59.335Z,5.75
2019-05-09T13:46:28.299Z,6.30
2019-05-09T13:49:08.174Z,6.33
2019-05-09T13:51:26.711Z,5.08
2019-05-09T13:53:55.362Z,5.60
2019-05-09T13:56:24.255Z,3.55
2019-05-09T13:58:52.807Z,3.77
2019-05-09T14:01:21.363Z,3.65
2019-05-09T14:03:49.859Z,3.00
2019-05-09T14:06:18.257Z,3.10
2019-05-09T14:08:49.034Z,4.87
2019-05-09T14:11:19.225Z,4.10
2019-05-09T14:13:48.706Z,5.03
2019-05-09T14:16:22.044Z,4.10
2019-05-09T14:18:48.617Z,3.47
2019-05-09T14:21:21.517Z,4.42
2019-05-09T14:24:01.171Z,5.22
2019-05-09T14:26:18.140Z,5.72
2019-05-09T14:28:48.895Z,5.10
2019-05-09T14:31:18.572Z,3.80
2019-05-09T14:33:47.767Z,4.50
2019-05-09T14:36:16.358Z,5.22
2019-05-09T14:38:44.898Z,2.72
2019-05-09T14:41:13.361Z,2.87
2019-05-09T14:43:41.873Z,5.10
2019-05-09T14:46:10.466Z,4.65
2019-05-09T17:48:18.415Z,5.70
2019-05-09T17:50:47.186Z,6.35
2019-05-09T17:53:17.997Z,5.95
2019-05-09T17:55:47.762Z,5.92
2019-05-09T17:58:27.106Z,6.60
2019-05-09T18:00:48.367Z,7.40
2019-05-09T18:03:18.227Z,6.30
2019-05-09T18:05:48.645Z,6.50
2019-05-09T18:08:18.755Z,6.10
2019-05-09T18:10:48.500Z,6.58
2019-05-09T18:13:23.651Z,6.10
2019-05-09T18:15:48.392Z,6.92
2019-05-09T18:18:18.472Z,7.58
2019-05-09T18:20:47.151Z,6.85
2019-05-09T18:23:17.607Z,9.33
2019-05-09T18:25:45.974Z,8.10
2019-05-09T18:28:17.296Z,5.05
2019-05-09T18:30:47.662Z,5.72
2019-05-09T18:33:22.930Z,8.50
2019-05-09T18:35:51.495Z,8.83
2019-05-09T18:38:27.911Z,6.25
2019-05-09T18:40:57.963Z,7.17
2019-05-09T18:43:27.429Z,7.15
2019-05-09T18:45:57.778Z,9.13
2019-05-09T18:48:27.818Z,5.55
2019-05-09T18:50:56.659Z,6.53
2019-05-09T18:53:25.254Z,8.18
2019-05-09T18:55:53.767Z,9.48
2019-05-09T18:58:22.207Z,8.43
2019-05-09T19:00:51.178Z,8.18
2019-05-09T19:03:19.689Z,7.12
2019-05-09T19:05:48.108Z,5.75
2019-05-09T19:08:16.542Z,6.58
2019-05-09T19:10:45.270Z,7.78
2019-05-09T19:13:13.732Z,6.00
2019-05-09T19:15:43.816Z,6.40
2019-05-09T19:18:13.976Z,6.85
2019-05-09T19:20:50.218Z,6.58
2019-05-09T19:23:18.929Z,6.87
2019-05-09T19:25:47.368Z,6.85
2019-05-09T19:28:15.782Z,5.42
2019-05-09T19:30:44.275Z,8.50
2019-05-09T19:33:12.665Z,6.62
2019-05-09T19:35:41.542Z,7.45
2019-05-09T19:38:09.988Z,6.40
2019-05-09T19:40:38.566Z,10.50
2019-05-09T19:43:06.994Z,7.28
2019-05-09T19:45:35.668Z,8.93
2019-05-09T19:48:04.094Z,8.13
2019-05-09T19:50:32.796Z,7.10
2019-05-09T19:53:01.533Z,9.38
2019-05-09T19:55:29.957Z,7.75
2019-05-09T19:57:58.386Z,5.10
2019-05-09T20:00:27.181Z,7.25
2019-05-09T20:02:55.608Z,7.65
2019-05-09T20:05:24.127Z,8.80
2019-05-09T20:07:52.604Z,9.60
2019-05-09T20:10:22.709Z,8.18
2019-05-09T20:13:09.064Z,6.60
2019-05-09T20:15:37.474Z,6.85
2019-05-09T20:18:05.911Z,9.33
2019-05-09T20:20:34.376Z,6.17
2019-05-09T20:23:02.782Z,8.18
2019-05-09T20:25:31.198Z,7.62
2019-05-09T20:28:00.558Z,8.40
2019-05-09T20:30:28.964Z,9.68
2019-05-09T20:32:57.376Z,10.93
2019-05-09T20:35:26.023Z,7.55
2019-05-09T20:37:54.628Z,7.20
2019-05-09T20:40:23.198Z,13.00
2019-05-09T20:42:51.849Z,8.55
2019-05-09T20:45:20.457Z,10.23
2019-05-09T20:47:49.202Z,9.30
2019-05-09T20:50:17.908Z,10.23
2019-05-09T20:52:46.508Z,9.98
2019-05-09T20:55:15.545Z,11.43
2019-05-09T20:57:44.374Z,9.48
2019-05-09T21:00:13.331Z,9.35
2019-05-09T21:02:42.296Z,12.58
2019-05-09T21:05:11.153Z,9.15
2019-05-09T21:07:39.760Z,8.10
2019-05-09T21:10:08.747Z,14.13
2019-05-09T21:12:37.359Z,5.80
2019-05-09T21:15:08.444Z,5.28
2019-05-09T21:17:37.331Z,10.33
2019-05-09T21:20:09.310Z,6.72
2019-05-09T21:25:07.406Z,6.53
2019-05-09T21:27:36.029Z,5.40
2019-05-09T21:30:10.509Z,5.85
2019-05-09T21:32:39.120Z,5.35
2019-05-09T21:35:08.106Z,3.95
2019-05-09T21:37:36.559Z,7.75
2019-05-09T21:40:08.736Z,4.97
2019-05-09T21:42:37.754Z,6.35
2019-05-09T21:45:09.548Z,6.20
2019-05-09T21:47:37.960Z,7.08
2019-05-09T21:50:07.247Z,5.85
2019-05-09T21:52:35.669Z,8.65
2019-05-09T21:55:05.084Z,4.85
2019-05-09T21:57:33.541Z,5.47
2019-05-09T22:00:02.183Z,4.75
2019-05-09T22:02:30.746Z,6.12
2019-05-09T22:04:59.302Z,8.55
2019-05-09T22:07:27.793Z,6.45
2019-05-09T22:09:56.211Z,8.75
2019-05-09T22:12:24.909Z,9.33
2019-05-09T22:14:53.350Z,7.12
2019-05-09T22:17:38.461Z,13.72
2019-05-09T22:20:12.077Z,5.85
2019-05-09T22:22:40.813Z,6.22
2019-05-09T22:25:09.970Z,6.08
2019-05-09T22:27:38.637Z,8.73
2019-05-09T22:30:10.578Z,5.17
2019-05-09T22:35:07.634Z,8.55
2019-05-09T22:37:36.061Z,8.00
2019-05-09T22:40:07.695Z,6.10
2019-05-09T22:42:36.177Z,6.05
2019-05-09T22:45:09.518Z,7.92
2019-05-09T22:47:38.180Z,6.15
2019-05-09T22:50:07.536Z,11.53
2019-05-09T22:52:35.961Z,13.60
2019-05-09T22:55:05.466Z,10.03
2019-05-09T22:57:33.889Z,7.90
2019-05-09T23:00:02.746Z,7.50
2019-05-09T23:02:31.536Z,8.83
2019-05-09T23:05:00.015Z,10.20
2019-05-09T23:07:28.494Z,6.90
2019-05-09T23:09:57.194Z,7.67
2019-05-09T23:12:25.624Z,11.43
2019-05-09T23:14:54.056Z,9.10
2019-05-09T23:17:22.517Z,7.95
2019-05-09T23:19:50.973Z,11.80
2019-05-09T23:22:20.068Z,10.28
2019-05-09T23:24:48.885Z,8.40
2019-05-09T23:27:19.196Z,7.60
2019-05-09T23:29:47.686Z,5.55
2019-05-09T23:32:20.744Z,8.25
2019-05-09T23:34:49.239Z,5.28
2019-05-09T23:37:17.683Z,8.53
2019-05-09T23:39:53.364Z,8.00
2019-05-09T23:42:21.756Z,8.53
2019-05-09T23:44:50.175Z,5.87
2019-05-09T23:47:18.640Z,7.80
2019-05-09T23:49:47.088Z,8.25
2019-05-09T23:52:15.574Z,7.87
2019-05-09T23:55:02.066Z,7.65
2019-05-09T23:57:48.509Z,5.42
